sensor_id;sensor_type;location;lat;lon;timestamp;pressure;altitude;pressure_sealevel;temperature;humidity
38197;BME280;26543;51.976;4.616;2023-03-25T00:01:47;52934.69;;;-140.72;49.92
38197;BME280;26543;51.976;4.616;2023-03-25T00:04:13;52946.88;;;-140.72;47.75
38197;BME280;26543;51.976;4.616;2023-03-25T00:06:38;52975.28;;;-140.72;50.10
38197;BME280;26543;51.976;4.616;2023-03-25T00:09:03;52959.06;;;-140.72;53.49
38197;BME280;26543;51.976;4.616;2023-03-25T00:11:29;53005.72;;;-140.72;55.93
38197;BME280;26543;51.976;4.616;2023-03-25T00:13:54;52940.78;;;-140.72;58.00
38197;BME280;26543;51.976;4.616;2023-03-25T00:16:20;52977.31;;;-140.72;68.62
38197;BME280;26543;51.976;4.616;2023-03-25T00:18:45;52983.41;;;-140.72;67.57
38197;BME280;26543;51.976;4.616;2023-03-25T00:21:12;52965.16;;;-140.72;69.17
38197;BME280;26543;51.976;4.616;2023-03-25T00:23:38;52971.22;;;-140.72;68.40
38197;BME280;26543;51.976;4.616;2023-03-25T00:26:04;52950.94;;;-140.72;69.49
38197;BME280;26543;51.976;4.616;2023-03-25T00:28:30;52979.34;;;-140.72;68.64
38197;BME280;26543;51.976;4.616;2023-03-25T00:31:01;52955.00;;;-140.72;66.68
38197;BME280;26543;51.976;4.616;2023-03-25T00:33:27;52967.16;;;-140.72;65.06
38197;BME280;26543;51.976;4.616;2023-03-25T00:35:52;52963.13;;;-140.72;62.63
38197;BME280;26543;51.976;4.616;2023-03-25T00:38:23;52963.13;;;-140.72;61.25
38197;BME280;26543;51.976;4.616;2023-03-25T00:40:48;52948.91;;;-140.72;61.74
38197;BME280;26543;51.976;4.616;2023-03-25T00:43:13;52975.28;;;-140.72;62.54
38197;BME280;26543;51.976;4.616;2023-03-25T00:45:38;52959.06;;;-140.72;62.15
38197;BME280;26543;51.976;4.616;2023-03-25T00:48:04;52930.66;;;-140.72;61.82
38197;BME280;26543;51.976;4.616;2023-03-25T00:50:29;52979.34;;;-140.72;61.43
38197;BME280;26543;51.976;4.616;2023-03-25T00:52:54;52955.00;;;-140.72;60.22
38197;BME280;26543;51.976;4.616;2023-03-25T00:55:20;52959.06;;;-140.72;60.94
38197;BME280;26543;51.976;4.616;2023-03-25T00:57:45;52955.00;;;-140.72;61.98
38197;BME280;26543;51.976;4.616;2023-03-25T01:00:11;52971.22;;;-140.72;65.28
38197;BME280;26543;51.976;4.616;2023-03-25T01:02:37;52977.31;;;-140.72;61.96
38197;BME280;26543;51.976;4.616;2023-03-25T01:05:06;53001.66;;;-140.72;64.41
38197;BME280;26543;51.976;4.616;2023-03-25T01:07:31;52955.00;;;-140.72;67.94
38197;BME280;26543;51.976;4.616;2023-03-25T01:09:57;52912.38;;;-140.72;69.99
38197;BME280;26543;51.976;4.616;2023-03-25T01:12:22;53017.91;;;-140.72;100.00
38197;BME280;26543;51.976;4.616;2023-03-25T01:14:47;52946.88;;;-140.72;100.00
38197;BME280;26543;51.976;4.616;2023-03-25T01:17:13;52963.13;;;-140.72;100.00
38197;BME280;26543;51.976;4.616;2023-03-25T01:19:38;53005.72;;;-140.72;100.00
38197;BME280;26543;51.976;4.616;2023-03-25T01:22:03;52997.63;;;-140.72;100.00
38197;BME280;26543;51.976;4.616;2023-03-25T01:24:29;52950.94;;;-140.72;100.00
38197;BME280;26543;51.976;4.616;2023-03-25T01:26:56;52999.66;;;-140.72;100.00
38197;BME280;26543;51.976;4.616;2023-03-25T01:29:21;52979.34;;;-140.72;100.00
38197;BME280;26543;51.976;4.616;2023-03-25T01:31:47;53011.81;;;-140.72;100.00
38197;BME280;26543;51.976;4.616;2023-03-25T01:34:16;52983.41;;;-140.72;100.00
38197;BME280;26543;51.976;4.616;2023-03-25T01:36:41;52997.63;;;-140.72;100.00
38197;BME280;26543;51.976;4.616;2023-03-25T01:39:10;52979.34;;;-140.72;100.00
38197;BME280;26543;51.976;4.616;2023-03-25T01:41:36;52995.59;;;-140.72;100.00
38197;BME280;26543;51.976;4.616;2023-03-25T01:44:05;52957.03;;;-140.72;100.00
38197;BME280;26543;51.976;4.616;2023-03-25T01:46:31;52975.28;;;-140.72;100.00
38197;BME280;26543;51.976;4.616;2023-03-25T01:48:56;53038.19;;;-140.72;100.00
38197;BME280;26543;51.976;4.616;2023-03-25T01:51:26;52975.28;;;-140.72;100.00
38197;BME280;26543;51.976;4.616;2023-03-25T01:53:52;52985.44;;;-140.72;100.00
38197;BME280;26543;51.976;4.616;2023-03-25T01:56:19;53017.91;;;-140.72;100.00
38197;BME280;26543;51.976;4.616;2023-03-25T01:58:46;52997.63;;;-140.72;100.00
38197;BME280;26543;51.976;4.616;2023-03-25T02:01:12;52971.22;;;-140.72;100.00
38197;BME280;26543;51.976;4.616;2023-03-25T02:03:39;52991.53;;;-140.72;100.00
38197;BME280;26543;51.976;4.616;2023-03-25T02:06:14;53001.66;;;-140.72;100.00
38197;BME280;26543;51.976;4.616;2023-03-25T02:08:41;53017.91;;;-140.72;100.00
38197;BME280;26543;51.976;4.616;2023-03-25T02:11:06;52989.50;;;-140.72;100.00
38197;BME280;26543;51.976;4.616;2023-03-25T02:13:32;52991.53;;;-140.72;100.00
38197;BME280;26543;51.976;4.616;2023-03-25T02:27:14;53007.75;;;-140.72;100.00
38197;BME280;26543;51.976;4.616;2023-03-25T02:32:39;53007.75;;;-140.72;100.00
38197;BME280;26543;51.976;4.616;2023-03-25T02:35:20;52979.34;;;-140.72;100.00
38197;BME280;26543;51.976;4.616;2023-03-25T02:38:00;52952.97;;;-140.72;100.00
38197;BME280;26543;51.976;4.616;2023-03-25T02:48:52;52979.34;;;-140.72;100.00
38197;BME280;26543;51.976;4.616;2023-03-25T02:51:21;52959.06;;;-140.72;100.00
38197;BME280;26543;51.976;4.616;2023-03-25T02:53:47;52973.25;;;-140.72;100.00
38197;BME280;26543;51.976;4.616;2023-03-25T02:56:13;52967.16;;;-140.72;100.00
38197;BME280;26543;51.976;4.616;2023-03-25T02:58:41;52993.56;;;-140.72;100.00
38197;BME280;26543;51.976;4.616;2023-03-25T03:01:08;53011.81;;;-140.72;100.00
38197;BME280;26543;51.976;4.616;2023-03-25T03:03:34;52981.38;;;-140.72;100.00
38197;BME280;26543;51.976;4.616;2023-03-25T03:06:00;52987.47;;;-140.72;100.00
38197;BME280;26543;51.976;4.616;2023-03-25T03:26:07;52963.13;;;-140.72;100.00
38197;BME280;26543;51.976;4.616;2023-03-25T03:28:42;53003.69;;;-140.72;100.00
38197;BME280;26543;51.976;4.616;2023-03-25T03:31:11;52999.66;;;-140.72;100.00
38197;BME280;26543;51.976;4.616;2023-03-25T03:33:56;52991.53;;;-140.72;100.00
38197;BME280;26543;51.976;4.616;2023-03-25T03:36:26;53013.84;;;-140.72;100.00
38197;BME280;26543;51.976;4.616;2023-03-25T03:38:57;52995.59;;;-140.72;100.00
38197;BME280;26543;51.976;4.616;2023-03-25T03:41:25;53017.91;;;-140.72;100.00
38197;BME280;26543;51.976;4.616;2023-03-25T03:43:57;52995.59;;;-140.72;100.00
38197;BME280;26543;51.976;4.616;2023-03-25T03:46:32;53021.97;;;-140.72;100.00
38197;BME280;26543;51.976;4.616;2023-03-25T03:48:58;53001.66;;;-140.72;100.00
38197;BME280;26543;51.976;4.616;2023-03-25T03:51:29;52995.59;;;-140.72;100.00
38197;BME280;26543;51.976;4.616;2023-03-25T03:54:00;53038.19;;;-140.72;100.00
38197;BME280;26543;51.976;4.616;2023-03-25T03:56:30;53050.38;;;-140.72;100.00
38197;BME280;26543;51.976;4.616;2023-03-25T03:59:01;53030.09;;;-140.72;100.00
38197;BME280;26543;51.976;4.616;2023-03-25T04:01:33;52983.41;;;-140.72;100.00
38197;BME280;26543;51.976;4.616;2023-03-25T04:04:10;52987.47;;;-140.72;100.00
38197;BME280;26543;51.976;4.616;2023-03-25T04:06:40;53009.78;;;-140.72;100.00
38197;BME280;26543;51.976;4.616;2023-03-25T04:11:35;52995.59;;;-140.72;100.00
38197;BME280;26543;51.976;4.616;2023-03-25T04:14:01;53015.88;;;-140.72;100.00
38197;BME280;26543;51.976;4.616;2023-03-25T04:16:27;53034.16;;;-140.72;100.00
38197;BME280;26543;51.976;4.616;2023-03-25T04:18:53;53019.94;;;-140.72;100.00
38197;BME280;26543;51.976;4.616;2023-03-25T04:21:19;53017.91;;;-140.72;100.00
38197;BME280;26543;51.976;4.616;2023-03-25T04:23:45;53017.91;;;-140.72;100.00
38197;BME280;26543;51.976;4.616;2023-03-25T04:26:11;52995.59;;;-140.72;100.00
38197;BME280;26543;51.976;4.616;2023-03-25T04:28:37;53015.88;;;-140.72;100.00
38197;BME280;26543;51.976;4.616;2023-03-25T04:31:09;52999.66;;;-140.72;100.00
38197;BME280;26543;51.976;4.616;2023-03-25T04:33:39;52989.50;;;-140.72;100.00
38197;BME280;26543;51.976;4.616;2023-03-25T04:36:04;53028.06;;;-140.72;100.00
38197;BME280;26543;51.976;4.616;2023-03-25T04:38:30;52991.53;;;-140.72;100.00
38197;BME280;26543;51.976;4.616;2023-03-25T04:40:56;53007.75;;;-140.72;100.00
38197;BME280;26543;51.976;4.616;2023-03-25T04:43:22;52989.50;;;-140.72;100.00
38197;BME280;26543;51.976;4.616;2023-03-25T04:45:47;52983.41;;;-140.72;100.00
38197;BME280;26543;51.976;4.616;2023-03-25T04:48:27;53032.13;;;-140.72;100.00
38197;BME280;26543;51.976;4.616;2023-03-25T04:50:57;52995.59;;;-140.72;100.00
38197;BME280;26543;51.976;4.616;2023-03-25T04:53:23;53003.69;;;-140.72;100.00
38197;BME280;26543;51.976;4.616;2023-03-25T04:55:48;52989.50;;;-140.72;100.00
38197;BME280;26543;51.976;4.616;2023-03-25T04:58:15;52967.16;;;-140.72;100.00
38197;BME280;26543;51.976;4.616;2023-03-25T05:00:41;53009.78;;;-140.72;100.00
38197;BME280;26543;51.976;4.616;2023-03-25T05:03:07;52983.41;;;-140.72;100.00
38197;BME280;26543;51.976;4.616;2023-03-25T05:05:33;53024.00;;;-140.72;100.00
38197;BME280;26543;51.976;4.616;2023-03-25T05:07:59;53003.69;;;-140.72;100.00
38197;BME280;26543;51.976;4.616;2023-03-25T05:10:26;53007.75;;;-140.72;100.00
38197;BME280;26543;51.976;4.616;2023-03-25T05:13:05;52971.22;;;-140.72;100.00
38197;BME280;26543;51.976;4.616;2023-03-25T05:15:34;52987.47;;;-140.72;100.00
38197;BME280;26543;51.976;4.616;2023-03-25T05:18:04;53032.13;;;-140.72;100.00
38197;BME280;26543;51.976;4.616;2023-03-25T05:20:30;52995.59;;;-140.72;100.00
38197;BME280;26543;51.976;4.616;2023-03-25T05:22:58;52995.59;;;-140.72;100.00
38197;BME280;26543;51.976;4.616;2023-03-25T05:25:24;52985.44;;;-140.72;100.00
38197;BME280;26543;51.976;4.616;2023-03-25T05:27:49;52948.91;;;-140.72;100.00
38197;BME280;26543;51.976;4.616;2023-03-25T05:30:14;52995.59;;;-140.72;100.00
38197;BME280;26543;51.976;4.616;2023-03-25T05:32:40;53032.13;;;-140.72;100.00
38197;BME280;26543;51.976;4.616;2023-03-25T05:35:05;52999.66;;;-140.72;100.00
38197;BME280;26543;51.976;4.616;2023-03-25T05:37:31;53028.06;;;-140.72;100.00
38197;BME280;26543;51.976;4.616;2023-03-25T05:39:56;53015.88;;;-140.72;100.00
38197;BME280;26543;51.976;4.616;2023-03-25T05:42:22;52995.59;;;-140.72;100.00
38197;BME280;26543;51.976;4.616;2023-03-25T05:44:50;52979.34;;;-140.72;100.00
38197;BME280;26543;51.976;4.616;2023-03-25T05:47:16;52981.38;;;-140.72;100.00
38197;BME280;26543;51.976;4.616;2023-03-25T05:49:41;52997.63;;;-140.72;100.00
38197;BME280;26543;51.976;4.616;2023-03-25T05:52:06;52995.59;;;-140.72;100.00
38197;BME280;26543;51.976;4.616;2023-03-25T05:54:33;53026.03;;;-140.72;100.00
38197;BME280;26543;51.976;4.616;2023-03-25T05:57:03;52983.41;;;-140.72;100.00
38197;BME280;26543;51.976;4.616;2023-03-25T05:59:28;52979.34;;;-140.72;100.00
38197;BME280;26543;51.976;4.616;2023-03-25T06:01:53;53007.75;;;-140.72;100.00
38197;BME280;26543;51.976;4.616;2023-03-25T06:04:18;52969.19;;;-140.72;100.00
38197;BME280;26543;51.976;4.616;2023-03-25T06:06:45;52991.53;;;-140.72;100.00
38197;BME280;26543;51.976;4.616;2023-03-25T06:09:11;52991.53;;;-140.72;100.00
38197;BME280;26543;51.976;4.616;2023-03-25T06:11:36;53003.69;;;-140.72;100.00
38197;BME280;26543;51.976;4.616;2023-03-25T06:14:02;52995.59;;;-140.72;100.00
38197;BME280;26543;51.976;4.616;2023-03-25T06:16:28;53019.94;;;-140.72;100.00
38197;BME280;26543;51.976;4.616;2023-03-25T06:18:54;53019.94;;;-140.72;100.00
38197;BME280;26543;51.976;4.616;2023-03-25T06:21:26;52987.47;;;-140.72;100.00
38197;BME280;26543;51.976;4.616;2023-03-25T06:23:52;52993.56;;;-140.72;100.00
38197;BME280;26543;51.976;4.616;2023-03-25T06:26:18;53011.81;;;-140.72;100.00
38197;BME280;26543;51.976;4.616;2023-03-25T06:28:43;53011.81;;;-140.72;100.00
38197;BME280;26543;51.976;4.616;2023-03-25T06:31:16;53024.00;;;-140.72;100.00
38197;BME280;26543;51.976;4.616;2023-03-25T06:33:42;52997.63;;;-140.72;100.00
38197;BME280;26543;51.976;4.616;2023-03-25T06:36:08;52979.34;;;-140.72;100.00
38197;BME280;26543;51.976;4.616;2023-03-25T06:38:35;53007.75;;;-140.72;100.00
38197;BME280;26543;51.976;4.616;2023-03-25T06:41:00;53021.97;;;-140.72;100.00
38197;BME280;26543;51.976;4.616;2023-03-25T06:43:26;53034.16;;;-140.72;100.00
38197;BME280;26543;51.976;4.616;2023-03-25T06:45:52;53005.72;;;-140.72;100.00
38197;BME280;26543;51.976;4.616;2023-03-25T06:48:17;52993.56;;;-140.72;100.00
38197;BME280;26543;51.976;4.616;2023-03-25T06:50:42;52955.00;;;-140.72;100.00
38197;BME280;26543;51.976;4.616;2023-03-25T06:53:09;52999.66;;;-140.72;100.00
38197;BME280;26543;51.976;4.616;2023-03-25T06:55:35;52997.63;;;-140.72;100.00
38197;BME280;26543;51.976;4.616;2023-03-25T06:58:00;53007.75;;;-140.72;100.00
38197;BME280;26543;51.976;4.616;2023-03-25T07:00:25;52999.66;;;-140.72;100.00
38197;BME280;26543;51.976;4.616;2023-03-25T07:02:52;52969.19;;;-140.72;100.00
38197;BME280;26543;51.976;4.616;2023-03-25T07:05:17;52955.00;;;-140.72;100.00
38197;BME280;26543;51.976;4.616;2023-03-25T07:07:43;53019.94;;;-140.72;100.00
38197;BME280;26543;51.976;4.616;2023-03-25T07:10:10;52975.28;;;-140.72;100.00
38197;BME280;26543;51.976;4.616;2023-03-25T07:12:36;52952.97;;;-140.72;100.00
38197;BME280;26543;51.976;4.616;2023-03-25T07:15:01;52952.97;;;-140.72;100.00
38197;BME280;26543;51.976;4.616;2023-03-25T07:17:26;52987.47;;;-140.72;100.00
38197;BME280;26543;51.976;4.616;2023-03-25T07:19:52;52920.50;;;-140.72;100.00
38197;BME280;26543;51.976;4.616;2023-03-25T07:22:17;53007.75;;;-140.72;100.00
38197;BME280;26543;51.976;4.616;2023-03-25T07:24:42;53007.75;;;-140.72;100.00
38197;BME280;26543;51.976;4.616;2023-03-25T07:27:09;52979.34;;;-140.72;100.00
38197;BME280;26543;51.976;4.616;2023-03-25T07:29:35;52946.88;;;-140.72;100.00
38197;BME280;26543;51.976;4.616;2023-03-25T07:32:00;52950.94;;;-140.72;100.00
38197;BME280;26543;51.976;4.616;2023-03-25T07:34:26;52979.34;;;-140.72;100.00
38197;BME280;26543;51.976;4.616;2023-03-25T07:36:51;52999.66;;;-140.72;100.00
38197;BME280;26543;51.976;4.616;2023-03-25T07:39:16;52979.34;;;-140.72;100.00
38197;BME280;26543;51.976;4.616;2023-03-25T07:41:42;52959.06;;;-140.72;100.00
38197;BME280;26543;51.976;4.616;2023-03-25T07:44:07;52977.31;;;-140.72;100.00
38197;BME280;26543;51.976;4.616;2023-03-25T07:46:33;52995.59;;;-140.72;100.00
38197;BME280;26543;51.976;4.616;2023-03-25T07:48:58;52995.59;;;-140.72;100.00
38197;BME280;26543;51.976;4.616;2023-03-25T07:51:23;52977.31;;;-140.72;100.00
38197;BME280;26543;51.976;4.616;2023-03-25T07:53:48;52983.41;;;-140.72;100.00
38197;BME280;26543;51.976;4.616;2023-03-25T07:56:14;52952.97;;;-140.72;100.00
38197;BME280;26543;51.976;4.616;2023-03-25T07:58:40;52959.06;;;-140.72;100.00
38197;BME280;26543;51.976;4.616;2023-03-25T08:01:06;52934.69;;;-140.72;100.00
38197;BME280;26543;51.976;4.616;2023-03-25T08:03:31;52944.84;;;-140.72;100.00
38197;BME280;26543;51.976;4.616;2023-03-25T08:05:59;52944.84;;;-140.72;100.00
38197;BME280;26543;51.976;4.616;2023-03-25T08:08:24;52948.91;;;-140.72;100.00
38197;BME280;26543;51.976;4.616;2023-03-25T08:10:50;52950.94;;;-140.72;100.00
38197;BME280;26543;51.976;4.616;2023-03-25T08:13:15;52965.16;;;-140.72;100.00
38197;BME280;26543;51.976;4.616;2023-03-25T08:15:40;52987.47;;;-140.72;100.00
38197;BME280;26543;51.976;4.616;2023-03-25T08:18:06;52926.59;;;-140.72;100.00
38197;BME280;26543;51.976;4.616;2023-03-25T08:20:34;53015.88;;;-140.72;100.00
38197;BME280;26543;51.976;4.616;2023-03-25T08:23:00;52940.78;;;-140.72;100.00
38197;BME280;26543;51.976;4.616;2023-03-25T08:25:26;52942.81;;;-140.72;100.00
38197;BME280;26543;51.976;4.616;2023-03-25T08:27:53;52969.19;;;-140.72;100.00
38197;BME280;26543;51.976;4.616;2023-03-25T08:30:18;52959.06;;;-140.72;100.00
38197;BME280;26543;51.976;4.616;2023-03-25T08:32:44;52955.00;;;-140.72;100.00
38197;BME280;26543;51.976;4.616;2023-03-25T08:35:10;52965.16;;;-140.72;100.00
38197;BME280;26543;51.976;4.616;2023-03-25T08:37:35;52930.66;;;-140.72;100.00
38197;BME280;26543;51.976;4.616;2023-03-25T08:40:02;52916.44;;;-140.72;100.00
38197;BME280;26543;51.976;4.616;2023-03-25T08:42:31;52932.66;;;-140.72;100.00
38197;BME280;26543;51.976;4.616;2023-03-25T08:44:56;52934.69;;;-140.72;100.00
38197;BME280;26543;51.976;4.616;2023-03-25T08:47:21;52938.75;;;-140.72;100.00
38197;BME280;26543;51.976;4.616;2023-03-25T08:49:47;52906.28;;;-140.72;100.00
38197;BME280;26543;51.976;4.616;2023-03-25T08:52:12;52924.56;;;-140.72;100.00
38197;BME280;26543;51.976;4.616;2023-03-25T08:54:37;52967.16;;;-140.72;100.00
38197;BME280;26543;51.976;4.616;2023-03-25T08:57:02;52922.53;;;-140.72;100.00
38197;BME280;26543;51.976;4.616;2023-03-25T08:59:27;52881.94;;;-140.72;100.00
38197;BME280;26543;51.976;4.616;2023-03-25T09:01:53;52952.97;;;-140.72;100.00
38197;BME280;26543;51.976;4.616;2023-03-25T09:04:18;52910.34;;;-140.72;100.00
38197;BME280;26543;51.976;4.616;2023-03-25T09:06:43;52898.16;;;-140.72;100.00
38197;BME280;26543;51.976;4.616;2023-03-25T09:09:09;52936.72;;;-140.72;100.00
38197;BME280;26543;51.976;4.616;2023-03-25T09:11:36;52910.34;;;-140.72;100.00
38197;BME280;26543;51.976;4.616;2023-03-25T09:14:01;52894.13;;;-140.72;100.00
38197;BME280;26543;51.976;4.616;2023-03-25T09:16:28;52924.56;;;-140.72;100.00
38197;BME280;26543;51.976;4.616;2023-03-25T09:18:53;52942.81;;;-140.72;100.00
38197;BME280;26543;51.976;4.616;2023-03-25T09:21:18;52922.53;;;-140.72;100.00
38197;BME280;26543;51.976;4.616;2023-03-25T09:23:43;52906.28;;;-140.72;100.00
38197;BME280;26543;51.976;4.616;2023-03-25T09:26:09;52950.94;;;-140.72;100.00
38197;BME280;26543;51.976;4.616;2023-03-25T09:28:35;52928.63;;;-140.72;100.00
38197;BME280;26543;51.976;4.616;2023-03-25T09:31:00;52888.03;;;-140.72;100.00
38197;BME280;26543;51.976;4.616;2023-03-25T09:33:25;52892.09;;;-140.72;100.00
38197;BME280;26543;51.976;4.616;2023-03-25T09:35:52;52865.69;;;-140.72;96.56
38197;BME280;26543;51.976;4.616;2023-03-25T09:38:17;52892.09;;;-140.72;75.79
38197;BME280;26543;51.976;4.616;2023-03-25T09:40:43;52875.84;;;-140.72;66.82
38197;BME280;26543;51.976;4.616;2023-03-25T09:45:48;52875.84;;;-140.72;15.53
38197;BME280;26543;51.976;4.616;2023-03-25T09:48:25;52873.81;;;-140.72;5.77
38197;BME280;26543;51.976;4.616;2023-03-25T09:50:51;52849.47;;;-140.72;0.00
38197;BME280;26543;51.976;4.616;2023-03-25T09:56:15;52873.81;;;-140.72;0.00
38197;BME280;26543;51.976;4.616;2023-03-25T09:59:00;52883.97;;;-140.72;0.00
38197;BME280;26543;51.976;4.616;2023-03-25T10:17:35;52910.34;;;-140.72;0.00
38197;BME280;26543;51.976;4.616;2023-03-25T10:25:04;52861.66;;;-140.72;0.00
38197;BME280;26543;51.976;4.616;2023-03-25T10:35:21;52930.66;;;-140.72;0.00
38197;BME280;26543;51.976;4.616;2023-03-25T10:37:48;52873.81;;;-140.72;0.00
38197;BME280;26543;51.976;4.616;2023-03-25T10:40:23;52857.59;;;-140.72;0.00
38197;BME280;26543;51.976;4.616;2023-03-25T10:42:57;52873.81;;;-140.72;0.00
38197;BME280;26543;51.976;4.616;2023-03-25T10:45:25;52881.94;;;-140.72;0.00
38197;BME280;26543;51.976;4.616;2023-03-25T10:47:51;52865.69;;;-140.72;0.00
38197;BME280;26543;51.976;4.616;2023-03-25T10:50:18;52853.53;;;-140.72;0.00
38197;BME280;26543;51.976;4.616;2023-03-25T10:52:44;52867.72;;;-140.72;0.00
38197;BME280;26543;51.976;4.616;2023-03-25T10:55:20;52833.22;;;-140.72;0.00
38197;BME280;26543;51.976;4.616;2023-03-25T10:57:47;52827.16;;;-140.72;0.00
38197;BME280;26543;51.976;4.616;2023-03-25T11:00:14;52843.38;;;-140.72;0.00
38197;BME280;26543;51.976;4.616;2023-03-25T11:02:42;52857.59;;;-140.72;0.00
38197;BME280;26543;51.976;4.616;2023-03-25T11:05:08;52855.56;;;-140.72;0.00
38197;BME280;26543;51.976;4.616;2023-03-25T11:07:40;52877.88;;;-140.72;0.00
38197;BME280;26543;51.976;4.616;2023-03-25T11:10:10;52877.88;;;-140.72;0.00
38197;BME280;26543;51.976;4.616;2023-03-25T11:12:38;52869.75;;;-140.72;0.00
38197;BME280;26543;51.976;4.616;2023-03-25T11:15:11;52861.66;;;-140.72;0.00
38197;BME280;26543;51.976;4.616;2023-03-25T11:17:36;52845.41;;;-140.72;0.00
38197;BME280;26543;51.976;4.616;2023-03-25T11:20:04;52827.16;;;-140.72;0.00
38197;BME280;26543;51.976;4.616;2023-03-25T11:22:35;52829.19;;;-140.72;0.00
38197;BME280;26543;51.976;4.616;2023-03-25T11:30:32;52881.94;;;-140.72;0.00
38197;BME280;26543;51.976;4.616;2023-03-25T11:35:29;52881.94;;;-140.72;0.00
38197;BME280;26543;51.976;4.616;2023-03-25T11:37:59;52865.69;;;-140.72;0.00
38197;BME280;26543;51.976;4.616;2023-03-25T11:40:26;52849.47;;;-140.72;0.00
38197;BME280;26543;51.976;4.616;2023-03-25T11:42:53;52776.41;;;-140.72;0.00
38197;BME280;26543;51.976;4.616;2023-03-25T11:45:22;52739.88;;;-140.72;0.00
38197;BME280;26543;51.976;4.616;2023-03-25T11:47:48;52790.63;;;-140.72;0.00
38197;BME280;26543;51.976;4.616;2023-03-25T11:50:19;52798.72;;;-140.72;0.00
38197;BME280;26543;51.976;4.616;2023-03-25T11:52:45;52837.28;;;-140.72;0.00
38197;BME280;26543;51.976;4.616;2023-03-25T11:55:29;52717.56;;;-140.72;0.00
38197;BME280;26543;51.976;4.616;2023-03-25T11:57:55;52766.25;;;-140.72;0.00
38197;BME280;26543;51.976;4.616;2023-03-25T12:00:28;52849.47;;;-140.72;0.00
38197;BME280;26543;51.976;4.616;2023-03-25T12:03:37;52845.41;;;-140.72;0.00
38197;BME280;26543;51.976;4.616;2023-03-25T12:05:48;52764.25;;;-140.72;0.00
38197;BME280;26543;51.976;4.616;2023-03-25T12:08:20;52821.06;;;-140.72;0.00
38197;BME280;26543;51.976;4.616;2023-03-25T12:13:48;52814.97;;;-140.72;0.00
38197;BME280;26543;51.976;4.616;2023-03-25T12:19:03;52798.72;;;-140.72;0.00
38197;BME280;26543;51.976;4.616;2023-03-25T12:29:22;52750.03;;;-140.72;0.00
38197;BME280;26543;51.976;4.616;2023-03-25T12:42:25;52776.41;;;-140.72;0.00
38197;BME280;26543;51.976;4.616;2023-03-25T12:47:40;52760.19;;;-140.72;0.00
38197;BME280;26543;51.976;4.616;2023-03-25T12:55:26;52750.03;;;-140.72;0.00
38197;BME280;26543;51.976;4.616;2023-03-25T13:00:45;52825.13;;;-140.72;0.00
38197;BME280;26543;51.976;4.616;2023-03-25T13:03:20;52857.59;;;-140.72;0.00
38197;BME280;26543;51.976;4.616;2023-03-25T13:10:44;52849.47;;;-140.72;0.00
38197;BME280;26543;51.976;4.616;2023-03-25T13:13:17;52752.06;;;-140.72;0.00
38197;BME280;26543;51.976;4.616;2023-03-25T13:15:47;52821.06;;;-140.72;0.00
38197;BME280;26543;51.976;4.616;2023-03-25T13:20:44;52812.94;;;-140.72;0.00
38197;BME280;26543;51.976;4.616;2023-03-25T13:23:14;52841.34;;;-140.72;0.00
38197;BME280;26543;51.976;4.616;2023-03-25T13:25:46;52833.22;;;-140.72;0.00
38197;BME280;26543;51.976;4.616;2023-03-25T13:28:14;52851.50;;;-140.72;0.00
38197;BME280;26543;51.976;4.616;2023-03-25T13:30:41;52873.81;;;-140.72;0.00
38197;BME280;26543;51.976;4.616;2023-03-25T13:33:23;52904.25;;;-140.72;0.00
38197;BME280;26543;51.976;4.616;2023-03-25T13:38:32;52932.66;;;-140.72;76.46
38197;BME280;26543;51.976;4.616;2023-03-25T13:41:06;52914.41;;;-140.72;100.00
38197;BME280;26543;51.976;4.616;2023-03-25T13:50:57;52886.00;;;-140.72;100.00
38197;BME280;26543;51.976;4.616;2023-03-25T13:53:28;52869.75;;;-140.72;100.00
38197;BME280;26543;51.976;4.616;2023-03-25T13:58:37;52642.47;;;-140.72;68.60
38197;BME280;26543;51.976;4.616;2023-03-25T14:06:04;52634.38;;;-140.72;0.00
38197;BME280;26543;51.976;4.616;2023-03-25T14:13:40;52569.44;;;-140.72;0.00
38197;BME280;26543;51.976;4.616;2023-03-25T14:16:07;52693.22;;;-140.72;0.00
38197;BME280;26543;51.976;4.616;2023-03-25T14:18:45;52658.72;;;-140.72;0.00
38197;BME280;26543;51.976;4.616;2023-03-25T14:21:13;52648.56;;;-140.72;0.00
38197;BME280;26543;51.976;4.616;2023-03-25T14:23:39;52610.00;;;-140.72;0.00
38197;BME280;26543;51.976;4.616;2023-03-25T14:26:04;52697.28;;;-140.72;0.00
38197;BME280;26543;51.976;4.616;2023-03-25T14:28:34;52597.84;;;-140.72;0.00
38197;BME280;26543;51.976;4.616;2023-03-25T14:31:08;52754.09;;;-140.72;0.00
38197;BME280;26543;51.976;4.616;2023-03-25T14:36:26;52748.00;;;-140.72;0.00
38197;BME280;26543;51.976;4.616;2023-03-25T14:38:53;52754.09;;;-140.72;0.00
38197;BME280;26543;51.976;4.616;2023-03-25T14:41:53;52798.72;;;-140.72;0.00
38197;BME280;26543;51.976;4.616;2023-03-25T14:44:09;52827.16;;;-140.72;0.00
38197;BME280;26543;51.976;4.616;2023-03-25T14:46:35;52833.22;;;-140.72;0.00
38197;BME280;26543;51.976;4.616;2023-03-25T14:56:33;52825.13;;;-140.72;0.00
38197;BME280;26543;51.976;4.616;2023-03-25T14:58:59;52837.28;;;-140.72;0.00
38197;BME280;26543;51.976;4.616;2023-03-25T15:01:32;52825.13;;;-140.72;0.00
38197;BME280;26543;51.976;4.616;2023-03-25T15:06:32;52871.78;;;-140.72;0.00
38197;BME280;26543;51.976;4.616;2023-03-25T15:08:58;52869.75;;;-140.72;0.00
38197;BME280;26543;51.976;4.616;2023-03-25T15:11:34;52894.13;;;-140.72;0.00
38197;BME280;26543;51.976;4.616;2023-03-25T15:14:02;52881.94;;;-140.72;0.00
38197;BME280;26543;51.976;4.616;2023-03-25T15:16:33;52890.06;;;-140.72;0.00
38197;BME280;26543;51.976;4.616;2023-03-25T15:19:00;52900.19;;;-140.72;0.00
38197;BME280;26543;51.976;4.616;2023-03-25T15:21:29;52869.75;;;-140.72;49.54